Time;durP1;ratioP1;P1;durP2;ratioP2;P2;SDS_P1;SDS_P2;PMS_P1;PMS_P2;Temp;Humidity;BMP_temperature;BMP_pressure;BME280_temperature;BME280_humidity;BME280_pressure;Samples;Min_cycle;Max_cycle;Signal;HPM_P1;HPM_P2
2021/07/13 00:01:54;;;;;;;3.43;3.23;;;;;;;;;;5076271;28;20201;-81
2021/07/13 00:04:20;;;;;;;3.97;3.67;;;;;;;;;;5076761;28;20257;-81
2021/07/13 00:06:47;;;;;;;3.70;3.40;;;;;;;;;;5076114;28;20594;-80
2021/07/13 00:09:13;;;;;;;3.83;3.53;;;;;;;;;;5076643;28;20172;-81
2021/07/13 00:11:39;;;;;;;4.30;3.90;;;;;;;;;;5076457;28;20360;-81
2021/07/13 00:14:06;;;;;;;4.20;3.80;;;;;;;;;;5093336;28;20169;-81
2021/07/13 00:16:32;;;;;;;6.43;4.20;;;;;;;;;;5075942;28;20191;-81
2021/07/13 00:18:59;;;;;;;4.47;4.07;;;;;;;;;;5076156;28;20172;-81
2021/07/13 00:21:25;;;;;;;4.30;4.00;;;;;;;;;;5075933;28;20535;-80
2021/07/13 00:23:51;;;;;;;4.47;4.17;;;;;;;;;;5094546;28;20528;-81
2021/07/13 00:26:17;;;;;;;3.93;3.63;;;;;;;;;;5076192;28;20198;-81
2021/07/13 00:28:43;;;;;;;5.87;4.00;;;;;;;;;;5076162;28;20175;-81
2021/07/13 00:31:09;;;;;;;4.70;3.80;;;;;;;;;;5076202;28;20981;-81
2021/07/13 00:33:35;;;;;;;4.43;4.13;;;;;;;;;;5075815;28;20647;-81
2021/07/13 00:36:01;;;;;;;4.70;3.80;;;;;;;;;;5075480;28;20265;-81
2021/07/13 00:38:27;;;;;;;4.60;4.20;;;;;;;;;;5075942;28;20277;-81
2021/07/13 00:40:53;;;;;;;4.70;4.27;;;;;;;;;;5075779;28;20180;-81
2021/07/13 00:43:19;;;;;;;3.83;3.43;;;;;;;;;;5094487;28;20233;-81
2021/07/13 00:45:46;;;;;;;4.03;3.73;;;;;;;;;;5075213;28;20647;-81
2021/07/13 00:48:12;;;;;;;4.33;4.00;;;;;;;;;;5076012;28;20188;-82
2021/07/13 00:50:39;;;;;;;4.37;3.97;;;;;;;;;;5075159;28;20509;-81
2021/07/13 00:53:05;;;;;;;4.37;3.90;;;;;;;;;;5093849;28;20223;-81
2021/07/13 00:55:31;;;;;;;4.13;3.73;;;;;;;;;;5075461;28;20240;-81
2021/07/13 00:57:57;;;;;;;3.83;3.53;;;;;;;;;;5093669;28;20287;-81
2021/07/13 01:00:24;;;;;;;4.27;3.97;;;;;;;;;;5093755;28;20196;-81
2021/07/13 01:02:52;;;;;;;4.03;3.73;;;;;;;;;;5093876;28;20254;-81
2021/07/13 01:05:23;;;;;;;4.10;3.80;;;;;;;;;;5076481;28;20268;-81
2021/07/13 01:08:04;;;;;;;4.10;3.80;;;;;;;;;;5075564;28;20187;-81
2021/07/13 01:10:49;;;;;;;4.13;3.83;;;;;;;;;;5075916;28;20584;-81
2021/07/13 01:13:29;;;;;;;4.33;3.93;;;;;;;;;;5076458;28;20179;-81
2021/07/13 01:16:04;;;;;;;4.93;4.40;;;;;;;;;;5094092;28;20627;-81
2021/07/13 01:18:32;;;;;;;5.53;4.10;;;;;;;;;;5076384;28;21073;-81
2021/07/13 01:21:17;;;;;;;5.20;4.80;;;;;;;;;;5075628;28;20172;-81
2021/07/13 01:24:01;;;;;;;4.90;4.50;;;;;;;;;;5094390;28;20176;-81
2021/07/13 01:26:36;;;;;;;4.97;4.57;;;;;;;;;;5094580;28;20180;-80
2021/07/13 01:29:04;;;;;;;5.20;4.77;;;;;;;;;;5075889;28;20175;-81
2021/07/13 01:31:31;;;;;;;4.73;4.23;;;;;;;;;;5075950;28;20267;-81
2021/07/13 01:34:00;;;;;;;5.17;4.63;;;;;;;;;;5093864;28;20171;-81
2021/07/13 01:36:36;;;;;;;5.07;4.63;;;;;;;;;;5075789;28;20176;-81
2021/07/13 01:39:03;;;;;;;4.87;4.47;;;;;;;;;;5075689;28;20173;-81
2021/07/13 01:41:30;;;;;;;5.27;4.77;;;;;;;;;;5075986;28;20555;-81
2021/07/13 01:43:57;;;;;;;5.10;4.63;;;;;;;;;;5075320;28;20537;-82
2021/07/13 01:46:23;;;;;;;6.67;4.83;;;;;;;;;;5075668;28;20278;-81
2021/07/13 01:48:52;;;;;;;5.87;4.97;;;;;;;;;;5075919;28;20178;-81
2021/07/13 01:51:19;;;;;;;4.87;4.47;;;;;;;;;;5074898;28;20178;-81
2021/07/13 01:53:46;;;;;;;4.77;4.37;;;;;;;;;;5071654;28;20273;-81
2021/07/13 01:56:12;;;;;;;4.80;4.40;;;;;;;;;;5071973;28;20183;-81
2021/07/13 01:58:39;;;;;;;5.17;4.67;;;;;;;;;;5071825;28;20204;-82
2021/07/13 02:01:07;;;;;;;5.43;4.53;;;;;;;;;;5073024;28;20193;-81
2021/07/13 02:03:34;;;;;;;5.37;4.87;;;;;;;;;;5072657;28;20188;-81
2021/07/13 02:06:01;;;;;;;4.87;4.47;;;;;;;;;;5070740;28;20612;-81
2021/07/13 02:08:28;;;;;;;5.30;4.87;;;;;;;;;;5072810;28;20180;-81
2021/07/13 02:10:54;;;;;;;5.30;4.80;;;;;;;;;;5070985;28;20184;-80
2021/07/13 02:13:20;;;;;;;5.17;4.77;;;;;;;;;;5070694;28;20265;-80
2021/07/13 02:15:47;;;;;;;5.57;5.07;;;;;;;;;;5070968;28;20191;-80
2021/07/13 02:18:14;;;;;;;5.53;5.03;;;;;;;;;;5072351;28;20655;-80
2021/07/13 02:20:40;;;;;;;4.83;4.43;;;;;;;;;;5071450;28;20175;-80
2021/07/13 02:23:07;;;;;;;5.27;4.87;;;;;;;;;;5072320;28;20259;-80
2021/07/13 02:25:33;;;;;;;5.90;4.77;;;;;;;;;;5072402;28;20252;-80
2021/07/13 02:28:06;;;;;;;5.37;4.83;;;;;;;;;;5072036;28;20209;-81
2021/07/13 02:30:34;;;;;;;5.67;4.77;;;;;;;;;;5071470;28;20604;-81
2021/07/13 02:33:02;;;;;;;5.50;4.73;;;;;;;;;;5072276;28;20189;-81
2021/07/13 02:35:38;;;;;;;6.33;4.50;;;;;;;;;;5072271;28;20180;-81
2021/07/13 02:38:05;;;;;;;5.60;4.30;;;;;;;;;;5074741;28;20281;-81
2021/07/13 02:40:31;;;;;;;5.40;4.90;;;;;;;;;;5076155;28;20168;-82
2021/07/13 02:42:58;;;;;;;5.10;4.70;;;;;;;;;;5074675;28;20208;-82
2021/07/13 02:45:24;;;;;;;5.30;4.80;;;;;;;;;;5074546;28;20177;-81
2021/07/13 02:47:50;;;;;;;4.97;4.47;;;;;;;;;;5076162;28;20631;-80
2021/07/13 02:50:17;;;;;;;4.97;4.50;;;;;;;;;;5074769;28;20536;-81
2021/07/13 02:52:44;;;;;;;5.87;5.27;;;;;;;;;;5075413;28;20181;-81
2021/07/13 02:55:14;;;;;;;7.00;4.90;;;;;;;;;;5073760;28;20235;-81
2021/07/13 02:57:40;;;;;;;5.60;5.10;;;;;;;;;;5073852;28;20208;-81
2021/07/13 03:00:10;;;;;;;5.10;4.40;;;;;;;;;;5074517;28;20654;-81
2021/07/13 03:02:37;;;;;;;5.70;5.20;;;;;;;;;;5074672;28;20290;-80
2021/07/13 03:05:04;;;;;;;6.43;4.93;;;;;;;;;;5074235;28;20172;-80
2021/07/13 03:07:30;;;;;;;4.80;4.40;;;;;;;;;;5074084;28;20238;-81
2021/07/13 03:09:56;;;;;;;5.63;5.07;;;;;;;;;;5075890;28;20307;-81
2021/07/13 03:12:22;;;;;;;5.73;5.23;;;;;;;;;;5073904;28;20292;-80
2021/07/13 03:14:49;;;;;;;5.13;4.73;;;;;;;;;;5075566;28;20169;-81
2021/07/13 03:17:17;;;;;;;5.77;5.00;;;;;;;;;;5074823;28;20196;-81
2021/07/13 03:19:43;;;;;;;5.53;5.00;;;;;;;;;;5074390;28;20176;-81
2021/07/13 03:22:14;;;;;;;5.30;4.80;;;;;;;;;;5073894;28;20632;-81
2021/07/13 03:24:40;;;;;;;4.80;4.40;;;;;;;;;;5075584;28;20161;-81
2021/07/13 03:27:08;;;;;;;5.13;4.63;;;;;;;;;;5075544;28;20177;-81
2021/07/13 03:29:35;;;;;;;4.80;4.40;;;;;;;;;;5075479;28;20177;-81
2021/07/13 03:32:02;;;;;;;5.87;5.27;;;;;;;;;;5075556;28;20180;-81
2021/07/13 03:34:28;;;;;;;5.40;5.00;;;;;;;;;;5072620;28;20407;-81
2021/07/13 03:36:55;;;;;;;5.93;5.43;;;;;;;;;;5073524;28;20204;-81
2021/07/13 03:39:21;;;;;;;5.40;4.93;;;;;;;;;;5073893;28;20177;-81
2021/07/13 03:41:48;;;;;;;5.50;5.10;;;;;;;;;;5073680;28;20173;-81
2021/07/13 03:44:14;;;;;;;4.80;4.40;;;;;;;;;;5073955;28;20172;-81
2021/07/13 03:46:40;;;;;;;5.27;4.87;;;;;;;;;;5075084;28;20173;-81
2021/07/13 03:49:07;;;;;;;5.33;4.83;;;;;;;;;;5073740;28;20196;-81
2021/07/13 03:51:39;;;;;;;5.13;4.60;;;;;;;;;;5073314;28;20265;-80
2021/07/13 03:54:05;;;;;;;6.67;4.60;;;;;;;;;;5073616;28;20220;-82
2021/07/13 03:56:31;;;;;;;4.93;4.53;;;;;;;;;;5074564;28;20167;-81
2021/07/13 03:58:58;;;;;;;7.03;5.03;;;;;;;;;;5073322;28;20252;-80
2021/07/13 04:01:24;;;;;;;5.67;5.17;;;;;;;;;;5073318;28;20195;-80
2021/07/13 04:03:50;;;;;;;5.83;5.33;;;;;;;;;;5074526;28;20183;-80
2021/07/13 04:06:16;;;;;;;4.80;4.40;;;;;;;;;;5072550;28;20207;-80
2021/07/13 04:08:42;;;;;;;5.30;4.90;;;;;;;;;;5074905;28;20616;-80
2021/07/13 04:11:08;;;;;;;4.90;4.50;;;;;;;;;;5073947;28;20220;-80
2021/07/13 04:13:34;;;;;;;5.63;5.07;;;;;;;;;;5073301;28;20187;-80
2021/07/13 04:16:00;;;;;;;7.13;5.00;;;;;;;;;;5074397;28;20173;-81
2021/07/13 04:18:26;;;;;;;5.30;4.80;;;;;;;;;;5072748;28;20201;-80
2021/07/13 04:20:52;;;;;;;5.00;4.47;;;;;;;;;;5074288;28;20170;-80
2021/07/13 04:23:18;;;;;;;5.97;5.13;;;;;;;;;;5072760;28;20291;-81
2021/07/13 04:25:45;;;;;;;5.80;5.30;;;;;;;;;;5074344;28;20186;-80
2021/07/13 04:28:11;;;;;;;4.93;4.43;;;;;;;;;;5072977;28;20619;-81
2021/07/13 04:30:37;;;;;;;5.40;4.90;;;;;;;;;;5072503;28;20176;-81
2021/07/13 04:33:03;;;;;;;6.30;5.23;;;;;;;;;;5072779;28;20174;-81
2021/07/13 04:35:29;;;;;;;5.33;4.70;;;;;;;;;;5074362;28;20185;-80
2021/07/13 04:37:55;;;;;;;4.80;4.40;;;;;;;;;;5073530;28;20208;-80
2021/07/13 04:40:21;;;;;;;4.57;4.17;;;;;;;;;;5072947;28;20623;-81
2021/07/13 04:42:47;;;;;;;5.37;4.60;;;;;;;;;;5072936;28;20170;-80
2021/07/13 04:45:13;;;;;;;5.03;4.53;;;;;;;;;;5074197;28;20712;-80
2021/07/13 04:47:40;;;;;;;4.90;4.40;;;;;;;;;;5073779;28;20757;-81
2021/07/13 04:50:07;;;;;;;5.40;4.90;;;;;;;;;;5072227;28;20658;-80
2021/07/13 04:52:33;;;;;;;4.80;4.40;;;;;;;;;;5073167;28;20179;-81
2021/07/13 04:55:00;;;;;;;4.77;4.37;;;;;;;;;;5071697;28;20779;-80
2021/07/13 04:57:26;;;;;;;4.90;4.50;;;;;;;;;;5071878;28;20219;-81
2021/07/13 04:59:53;;;;;;;5.13;4.37;;;;;;;;;;5073732;28;20191;-81
2021/07/13 05:02:19;;;;;;;5.33;4.83;;;;;;;;;;5072563;28;20295;-80
2021/07/13 05:04:45;;;;;;;6.70;4.70;;;;;;;;;;5073271;28;20183;-81
2021/07/13 05:07:11;;;;;;;4.73;4.33;;;;;;;;;;5072740;28;20196;-81
2021/07/13 05:09:37;;;;;;;5.70;5.20;;;;;;;;;;5072000;28;20183;-81
2021/07/13 05:12:03;;;;;;;5.67;5.17;;;;;;;;;;5071705;28;20172;-81
2021/07/13 05:14:29;;;;;;;6.80;6.10;;;;;;;;;;5072100;28;20259;-81
2021/07/13 05:16:56;;;;;;;5.77;5.27;;;;;;;;;;5072236;28;20183;-80
2021/07/13 05:19:22;;;;;;;6.43;5.63;;;;;;;;;;5073083;28;20165;-80
2021/07/13 05:22:01;;;;;;;6.60;5.90;;;;;;;;;;5071521;28;20539;-80
2021/07/13 05:24:27;;;;;;;6.57;5.67;;;;;;;;;;5073225;28;20165;-80
2021/07/13 05:26:53;;;;;;;7.07;6.37;;;;;;;;;;5073143;28;20170;-80
2021/07/13 05:29:19;;;;;;;6.53;5.93;;;;;;;;;;5073046;28;20629;-80
2021/07/13 05:31:45;;;;;;;6.77;6.07;;;;;;;;;;5071559;28;20176;-80
2021/07/13 05:34:12;;;;;;;7.60;6.90;;;;;;;;;;5072403;28;20177;-80
2021/07/13 05:36:38;;;;;;;7.27;6.57;;;;;;;;;;5070915;28;20233;-81
2021/07/13 05:39:06;;;;;;;6.13;5.53;;;;;;;;;;5071066;28;20315;-81
2021/07/13 05:41:32;;;;;;;6.80;6.10;;;;;;;;;;5071605;28;20495;-81
2021/07/13 05:43:59;;;;;;;6.30;5.70;;;;;;;;;;5071230;28;20178;-81
2021/07/13 05:46:25;;;;;;;7.83;5.80;;;;;;;;;;5072309;28;20181;-81
2021/07/13 05:48:51;;;;;;;6.37;5.73;;;;;;;;;;5071085;28;20180;-81
2021/07/13 05:51:17;;;;;;;8.57;6.30;;;;;;;;;;5071006;28;20207;-81
2021/07/13 05:53:43;;;;;;;6.67;6.07;;;;;;;;;;5075531;28;20270;-81
2021/07/13 05:56:10;;;;;;;6.07;5.47;;;;;;;;;;5074693;28;20176;-80
2021/07/13 05:58:37;;;;;;;6.03;5.43;;;;;;;;;;5074638;28;20639;-81
2021/07/13 06:01:04;;;;;;;6.20;5.70;;;;;;;;;;5074954;28;20185;-80
2021/07/13 06:03:30;;;;;;;6.60;4.90;;;;;;;;;;5074753;28;20552;-81
2021/07/13 06:05:56;;;;;;;8.37;5.07;;;;;;;;;;5092118;28;20555;-80
2021/07/13 06:08:22;;;;;;;6.73;5.27;;;;;;;;;;5074830;28;20540;-81
2021/07/13 06:10:48;;;;;;;6.97;6.35;;;;;;;;;;5090476;28;20405;-81
2021/07/13 06:13:14;;;;;;;6.40;5.80;;;;;;;;;;5074920;28;20175;-81
2021/07/13 06:15:40;;;;;;;6.33;5.70;;;;;;;;;;5074014;28;20222;-81
2021/07/13 06:18:06;;;;;;;6.57;5.97;;;;;;;;;;5073848;28;20225;-81
2021/07/13 06:20:35;;;;;;;5.43;4.93;;;;;;;;;;5073919;28;20198;-81
2021/07/13 06:23:01;;;;;;;6.20;5.50;;;;;;;;;;5092359;28;20182;-81
2021/07/13 06:25:27;;;;;;;6.10;5.50;;;;;;;;;;5092419;28;20191;-82
2021/07/13 06:27:53;;;;;;;6.23;5.60;;;;;;;;;;5092736;28;20168;-81
2021/07/13 06:30:19;;;;;;;6.17;5.57;;;;;;;;;;5073933;28;20584;-81
2021/07/13 06:32:45;;;;;;;6.63;5.77;;;;;;;;;;5074587;28;20263;-81
2021/07/13 06:35:11;;;;;;;6.60;5.47;;;;;;;;;;5092272;28;20172;-81
2021/07/13 06:37:37;;;;;;;5.43;4.90;;;;;;;;;;5074405;28;20666;-81
2021/07/13 06:40:04;;;;;;;5.77;5.27;;;;;;;;;;5092420;28;20497;-80
2021/07/13 06:42:30;;;;;;;5.47;4.90;;;;;;;;;;5092671;28;20263;-81
2021/07/13 06:44:56;;;;;;;7.47;5.27;;;;;;;;;;5074495;28;20176;-81
2021/07/13 06:47:22;;;;;;;5.97;5.37;;;;;;;;;;5092958;28;20176;-80
2021/07/13 06:49:48;;;;;;;6.40;5.67;;;;;;;;;;5074980;28;20180;-81
2021/07/13 06:52:15;;;;;;;5.97;5.37;;;;;;;;;;5073871;28;20187;-81
2021/07/13 06:54:41;;;;;;;5.50;4.50;;;;;;;;;;5073767;28;20583;-81
2021/07/13 06:57:07;;;;;;;4.77;4.37;;;;;;;;;;5073800;28;20204;-81
2021/07/13 06:59:34;;;;;;;4.97;4.43;;;;;;;;;;5074908;28;20175;-81
2021/07/13 07:02:01;;;;;;;5.40;4.90;;;;;;;;;;5073845;28;20211;-81
2021/07/13 07:04:27;;;;;;;5.13;4.73;;;;;;;;;;5092293;28;20168;-81
2021/07/13 07:06:53;;;;;;;6.50;5.23;;;;;;;;;;5091947;28;20720;-81
2021/07/13 07:09:19;;;;;;;5.33;4.60;;;;;;;;;;5092096;28;20160;-81
2021/07/13 07:11:45;;;;;;;5.40;4.90;;;;;;;;;;5091751;28;20634;-81
2021/07/13 07:14:11;;;;;;;4.60;4.20;;;;;;;;;;5074143;28;20210;-81
2021/07/13 07:16:37;;;;;;;5.13;4.73;;;;;;;;;;5091677;28;20506;-81
2021/07/13 07:19:03;;;;;;;5.33;4.73;;;;;;;;;;5073791;28;20207;-80
2021/07/13 07:21:29;;;;;;;4.43;3.97;;;;;;;;;;5073390;28;20172;-80
2021/07/13 07:23:56;;;;;;;5.00;4.40;;;;;;;;;;5095371;28;20167;-80
2021/07/13 07:26:22;;;;;;;5.70;4.33;;;;;;;;;;5077528;28;20628;-81
2021/07/13 07:28:48;;;;;;;4.73;3.80;;;;;;;;;;5077292;28;20179;-81
2021/07/13 07:31:17;;;;;;;5.07;4.57;;;;;;;;;;5094919;28;20684;-81
2021/07/13 07:33:43;;;;;;;4.77;4.37;;;;;;;;;;5095258;28;20306;-81
2021/07/13 07:36:09;;;;;;;5.37;4.70;;;;;;;;;;5076806;28;20558;-81
2021/07/13 07:38:35;;;;;;;5.53;5.00;;;;;;;;;;5077380;28;20222;-81
2021/07/13 07:41:01;;;;;;;4.80;4.40;;;;;;;;;;5077395;28;20172;-81
2021/07/13 07:43:27;;;;;;;7.13;5.13;;;;;;;;;;5094860;28;20173;-81
2021/07/13 07:45:53;;;;;;;5.10;4.67;;;;;;;;;;5094895;28;20176;-80
2021/07/13 07:48:19;;;;;;;5.97;5.37;;;;;;;;;;5077403;28;20179;-80
2021/07/13 07:50:45;;;;;;;6.50;5.90;;;;;;;;;;5076365;28;20183;-80
2021/07/13 07:53:11;;;;;;;6.70;5.60;;;;;;;;;;5094939;28;20168;-80
2021/07/13 07:55:38;;;;;;;6.63;5.57;;;;;;;;;;5094654;28;20587;-80
2021/07/13 07:58:04;;;;;;;5.80;4.70;;;;;;;;;;5077022;28;20207;-80
2021/07/13 08:00:30;;;;;;;5.83;5.27;;;;;;;;;;5077245;28;20224;-80
2021/07/13 08:02:56;;;;;;;6.50;5.80;;;;;;;;;;5095091;28;20244;-81
2021/07/13 08:05:26;;;;;;;6.90;6.30;;;;;;;;;;5076744;28;20176;-81
2021/07/13 08:07:52;;;;;;;6.77;6.17;;;;;;;;;;5094632;28;20192;-81
2021/07/13 08:10:18;;;;;;;7.23;6.53;;;;;;;;;;5076489;28;20208;-81
2021/07/13 08:12:45;;;;;;;7.33;6.50;;;;;;;;;;5095282;28;20168;-82
2021/07/13 08:15:12;;;;;;;8.35;7.35;;;;;;;;;;5094810;28;20434;-81
2021/07/13 08:17:38;;;;;;;7.67;6.93;;;;;;;;;;5095733;28;20284;-81
2021/07/13 08:20:05;;;;;;;7.43;6.73;;;;;;;;;;5095657;28;20193;-81
2021/07/13 08:22:34;;;;;;;7.10;6.40;;;;;;;;;;5077084;28;20521;-81
2021/07/13 08:25:02;;;;;;;7.30;6.60;;;;;;;;;;5095524;28;20191;-82
2021/07/13 08:27:29;;;;;;;8.10;7.30;;;;;;;;;;5095568;28;20179;-81
2021/07/13 08:29:55;;;;;;;7.17;6.47;;;;;;;;;;5077138;28;20201;-81
2021/07/13 08:32:21;;;;;;;6.97;6.30;;;;;;;;;;5077062;28;20178;-81
2021/07/13 08:34:47;;;;;;;7.20;6.60;;;;;;;;;;5094403;28;20181;-81
2021/07/13 08:37:13;;;;;;;7.07;6.37;;;;;;;;;;5076069;28;20210;-81
2021/07/13 08:39:39;;;;;;;7.27;6.57;;;;;;;;;;5076882;28;20177;-82
2021/07/13 08:42:05;;;;;;;7.57;6.87;;;;;;;;;;5076114;28;20178;-83
2021/07/13 08:44:32;;;;;;;6.77;6.13;;;;;;;;;;5076258;28;20237;-82
2021/07/13 08:46:58;;;;;;;7.77;6.70;;;;;;;;;;5076234;28;20208;-82
2021/07/13 08:49:24;;;;;;;8.93;7.10;;;;;;;;;;5076682;28;20208;-82
2021/07/13 08:51:50;;;;;;;9.27;8.37;;;;;;;;;;5076490;28;20180;-81
2021/07/13 08:54:16;;;;;;;9.13;8.23;;;;;;;;;;5094913;28;20220;-81
2021/07/13 08:56:42;;;;;;;9.00;8.10;;;;;;;;;;5095194;28;20559;-81
2021/07/13 08:59:08;;;;;;;9.93;9.03;;;;;;;;;;5077146;28;20699;-80
2021/07/13 09:01:34;;;;;;;9.20;8.13;;;;;;;;;;5076731;28;20540;-81
2021/07/13 09:04:04;;;;;;;9.80;8.90;;;;;;;;;;5076369;28;20176;-81
2021/07/13 09:06:48;;;;;;;10.80;9.77;;;;;;;;;;5075495;28;20193;-81
2021/07/13 09:09:21;;;;;;;12.07;10.80;;;;;;;;;;5095059;28;20534;-81
2021/07/13 09:11:53;;;;;;;10.10;8.83;;;;;;;;;;5076272;28;20188;-81
2021/07/13 09:14:19;;;;;;;11.37;10.27;;;;;;;;;;5094352;28;20252;-81
2021/07/13 09:16:45;;;;;;;13.50;10.93;;;;;;;;;;5076104;28;20211;-81
2021/07/13 09:19:14;;;;;;;13.00;11.70;;;;;;;;;;5094376;28;20210;-81
2021/07/13 09:21:42;;;;;;;12.63;11.43;;;;;;;;;;5093864;28;20533;-81
2021/07/13 09:24:21;;;;;;;16.90;13.13;;;;;;;;;;5076016;28;20172;-81
2021/07/13 09:26:48;;;;;;;14.17;12.67;;;;;;;;;;5094208;28;20167;-82
2021/07/13 09:29:31;;;;;;;14.47;13.00;;;;;;;;;;5075351;28;20270;-81
2021/07/13 09:32:15;;;;;;;14.00;12.63;;;;;;;;;;5075649;28;20244;-81
2021/07/13 09:34:55;;;;;;;13.47;12.27;;;;;;;;;;5075376;28;20173;-81
2021/07/13 09:37:22;;;;;;;13.37;12.13;;;;;;;;;;5075019;28;20235;-81
2021/07/13 09:39:59;;;;;;;13.30;11.97;;;;;;;;;;5093557;28;20523;-81
2021/07/13 09:42:26;;;;;;;13.07;11.83;;;;;;;;;;5075226;28;20179;-82
2021/07/13 09:44:52;;;;;;;14.27;12.90;;;;;;;;;;5075089;28;20237;-81
2021/07/13 09:47:28;;;;;;;14.13;12.73;;;;;;;;;;5075203;28;20184;-82
2021/07/13 09:49:54;;;;;;;12.63;11.40;;;;;;;;;;5075275;28;20211;-81
2021/07/13 09:52:25;;;;;;;13.30;11.97;;;;;;;;;;5074934;28;20638;-81
2021/07/13 09:54:51;;;;;;;13.07;11.83;;;;;;;;;;5093374;28;20357;-81
2021/07/13 09:57:18;;;;;;;13.13;11.73;;;;;;;;;;5093798;28;20328;-82
2021/07/13 09:59:44;;;;;;;12.30;11.10;;;;;;;;;;5093690;28;20168;-81
2021/07/13 10:02:11;;;;;;;12.10;11.03;;;;;;;;;;5074862;28;20184;-81
2021/07/13 10:04:39;;;;;;;13.07;11.23;;;;;;;;;;5074866;28;20175;-81
2021/07/13 10:07:08;;;;;;;13.20;11.90;;;;;;;;;;5074335;28;20561;-81
2021/07/13 10:09:36;;;;;;;12.40;11.10;;;;;;;;;;5075294;28;20172;-80
2021/07/13 10:12:06;;;;;;;13.93;10.97;;;;;;;;;;5093294;28;20168;-81
2021/07/13 10:14:32;;;;;;;13.83;12.50;;;;;;;;;;5075188;28;20157;-81
2021/07/13 10:17:00;;;;;;;13.37;12.03;;;;;;;;;;5075155;28;20749;-80
2021/07/13 10:19:27;;;;;;;10.93;9.93;;;;;;;;;;5075222;28;20210;-81
2021/07/13 10:21:54;;;;;;;12.67;11.27;;;;;;;;;;5098296;28;20171;-80
2021/07/13 10:24:24;;;;;;;11.43;10.33;;;;;;;;;;5089580;28;20205;-80
2021/07/13 10:26:52;;;;;;;13.03;11.73;;;;;;;;;;5089411;28;20242;-80
2021/07/13 10:29:33;;;;;;;15.13;12.03;;;;;;;;;;5091022;28;20173;-80
2021/07/13 10:32:04;;;;;;;13.37;11.97;;;;;;;;;;5108548;28;21008;-80
2021/07/13 10:34:49;;;;;;;13.23;12.03;;;;;;;;;;5090893;28;20203;-81
2021/07/13 10:37:27;;;;;;;15.13;13.73;;;;;;;;;;5089747;28;20204;-80
2021/07/13 10:39:54;;;;;;;12.67;11.47;;;;;;;;;;5090038;28;20167;-80
2021/07/13 10:42:39;;;;;;;13.07;11.47;;;;;;;;;;5108766;28;20214;-80
2021/07/13 10:45:13;;;;;;;12.67;11.43;;;;;;;;;;5083732;28;20180;-81
2021/07/13 10:47:55;;;;;;;12.03;10.93;;;;;;;;;;5079598;28;20187;-82
2021/07/13 10:50:28;;;;;;;13.10;11.53;;;;;;;;;;5079095;28;20175;-81
2021/07/13 10:53:12;;;;;;;12.33;11.20;;;;;;;;;;5078170;28;20176;-81
2021/07/13 10:55:39;;;;;;;12.50;11.20;;;;;;;;;;5078246;28;20215;-81
2021/07/13 10:58:11;;;;;;;11.47;10.37;;;;;;;;;;5081343;28;20211;-81
2021/07/13 11:03:33;;;;;;;12.83;11.67;;;;;;;;;;5100321;28;20528;-82
2021/07/13 11:06:04;;;;;;;13.17;11.93;;;;;;;;;;5081559;28;20180;-82
2021/07/13 11:08:44;;;;;;;11.53;10.53;;;;;;;;;;5081932;28;20177;-82
2021/07/13 11:11:18;;;;;;;11.47;10.40;;;;;;;;;;5100414;28;20188;-81
2021/07/13 11:13:44;;;;;;;12.13;10.97;;;;;;;;;;5100594;28;20174;-81
2021/07/13 11:16:11;;;;;;;11.80;10.37;;;;;;;;;;5081625;28;20237;-82
2021/07/13 11:18:38;;;;;;;11.50;10.50;;;;;;;;;;5081213;28;20267;-81
2021/07/13 11:21:17;;;;;;;11.27;10.27;;;;;;;;;;5080660;28;20528;-81
2021/07/13 11:23:43;;;;;;;11.47;10.43;;;;;;;;;;5080823;28;20182;-81
2021/07/13 11:26:11;;;;;;;12.32;11.20;;;;;;;;;;5080159;28;20448;-81
2021/07/13 11:28:37;;;;;;;10.90;10.00;;;;;;;;;;5081003;28;20203;-81
2021/07/13 11:31:04;;;;;;;10.83;9.90;;;;;;;;;;5081576;28;20172;-81
2021/07/13 11:33:31;;;;;;;12.53;11.27;;;;;;;;;;5099306;28;20552;-82
2021/07/13 11:35:59;;;;;;;11.13;10.13;;;;;;;;;;5080682;28;20305;-81
2021/07/13 11:38:26;;;;;;;12.03;10.93;;;;;;;;;;5080675;28;20611;-81
2021/07/13 11:41:09;;;;;;;11.30;10.27;;;;;;;;;;5080619;28;20170;-82
2021/07/13 11:43:35;;;;;;;12.37;11.20;;;;;;;;;;5080618;28;20188;-81
2021/07/13 11:46:11;;;;;;;12.30;11.00;;;;;;;;;;5080725;28;20178;-81
2021/07/13 11:48:41;;;;;;;12.53;11.27;;;;;;;;;;5081077;28;20184;-81
2021/07/13 11:51:10;;;;;;;13.07;11.87;;;;;;;;;;5080582;28;20553;-81
2021/07/13 11:53:36;;;;;;;13.57;12.27;;;;;;;;;;5080529;28;20274;-82
2021/07/13 11:56:03;;;;;;;12.10;10.93;;;;;;;;;;5098834;28;20186;-81
2021/07/13 11:58:30;;;;;;;11.67;10.67;;;;;;;;;;5080515;28;20572;-81
2021/07/13 12:01:14;;;;;;;12.03;10.93;;;;;;;;;;5099553;28;20192;-81
2021/07/13 12:03:41;;;;;;;12.13;11.03;;;;;;;;;;5080630;28;20164;-81
2021/07/13 12:06:14;;;;;;;14.50;13.20;;;;;;;;;;5079428;28;20325;-81
2021/07/13 12:08:40;;;;;;;13.63;12.43;;;;;;;;;;5097026;28;20183;-81
2021/07/13 12:11:07;;;;;;;14.33;12.93;;;;;;;;;;5080330;28;20584;-83
2021/07/13 12:13:34;;;;;;;13.13;11.93;;;;;;;;;;5080157;28;20180;-81
2021/07/13 12:16:22;;;;;;;13.13;11.93;;;;;;;;;;5098801;28;20226;-81
2021/07/13 12:18:49;;;;;;;13.73;12.43;;;;;;;;;;5079823;28;20201;-81
2021/07/13 12:21:15;;;;;;;13.77;12.50;;;;;;;;;;5079515;28;20168;-80
2021/07/13 12:23:45;;;;;;;14.47;13.23;;;;;;;;;;5098454;28;20592;-81
2021/07/13 12:26:21;;;;;;;12.20;11.03;;;;;;;;;;5097868;28;20169;-81
2021/07/13 12:29:06;;;;;;;13.37;12.17;;;;;;;;;;5080091;28;20226;-81
2021/07/13 12:31:35;;;;;;;13.73;12.53;;;;;;;;;;5098542;28;20186;-80
2021/07/13 12:34:03;;;;;;;13.00;11.93;;;;;;;;;;5098500;28;20173;-80
2021/07/13 12:36:30;;;;;;;13.87;12.67;;;;;;;;;;5079039;28;20631;-81
2021/07/13 12:38:57;;;;;;;13.90;12.70;;;;;;;;;;5079800;28;20202;-81
2021/07/13 12:41:29;;;;;;;16.13;14.53;;;;;;;;;;5079031;28;20195;-80
2021/07/13 12:43:55;;;;;;;13.77;12.47;;;;;;;;;;5079245;28;20177;-81
2021/07/13 12:46:31;;;;;;;13.93;12.63;;;;;;;;;;5078968;28;20190;-81
2021/07/13 12:48:58;;;;;;;15.73;14.23;;;;;;;;;;5097329;28;20194;-82
2021/07/13 12:51:28;;;;;;;14.50;13.20;;;;;;;;;;5078800;28;20585;-81
2021/07/13 12:54:05;;;;;;;13.97;12.60;;;;;;;;;;5078360;28;20219;-80
2021/07/13 12:56:31;;;;;;;14.50;13.07;;;;;;;;;;5097038;28;20177;-81
2021/07/13 12:59:07;;;;;;;14.30;13.10;;;;;;;;;;5078014;28;20568;-81
2021/07/13 13:01:33;;;;;;;13.23;11.90;;;;;;;;;;5096413;28;20180;-82
2021/07/13 13:04:19;;;;;;;14.20;12.80;;;;;;;;;;5078677;28;20176;-83
2021/07/13 13:06:45;;;;;;;15.77;14.27;;;;;;;;;;5096103;28;20274;-81
2021/07/13 13:09:15;;;;;;;16.17;14.57;;;;;;;;;;5077657;28;20184;-82
2021/07/13 13:11:42;;;;;;;14.30;12.90;;;;;;;;;;5077888;28;20300;-81
2021/07/13 13:14:12;;;;;;;14.13;12.83;;;;;;;;;;5077595;28;20207;-80
2021/07/13 13:16:40;;;;;;;14.20;12.80;;;;;;;;;;5077314;28;20592;-81
2021/07/13 13:19:06;;;;;;;13.10;11.90;;;;;;;;;;5077621;28;20204;-83
2021/07/13 13:21:33;;;;;;;14.03;12.70;;;;;;;;;;5076732;28;20171;-82
2021/07/13 13:24:04;;;;;;;12.80;11.63;;;;;;;;;;5078362;28;20186;-82
2021/07/13 13:26:31;;;;;;;13.67;12.47;;;;;;;;;;5077896;28;20570;-80
2021/07/13 13:28:57;;;;;;;13.33;12.13;;;;;;;;;;5077246;28;20178;-81
2021/07/13 13:31:23;;;;;;;13.00;11.90;;;;;;;;;;5077405;28;20184;-81
2021/07/13 13:33:52;;;;;;;13.07;11.97;;;;;;;;;;5077412;28;20222;-83
2021/07/13 13:36:27;;;;;;;13.93;12.63;;;;;;;;;;5077909;28;20194;-81
2021/07/13 13:38:57;;;;;;;13.50;12.30;;;;;;;;;;5077184;28;20193;-81
2021/07/13 13:41:23;;;;;;;13.17;11.87;;;;;;;;;;5095714;28;20179;-84
2021/07/13 13:43:50;;;;;;;13.20;12.10;;;;;;;;;;5078089;28;20202;-83
2021/07/13 13:46:16;;;;;;;14.03;12.73;;;;;;;;;;5096767;28;20175;-83
2021/07/13 13:48:42;;;;;;;12.73;11.53;;;;;;;;;;5079089;28;20202;-83
2021/07/13 13:51:08;;;;;;;11.40;10.30;;;;;;;;;;5078869;28;20176;-83
2021/07/13 13:53:34;;;;;;;11.83;10.63;;;;;;;;;;5078492;28;20179;-83
2021/07/13 13:56:00;;;;;;;16.30;12.83;;;;;;;;;;5096969;28;20175;-83
2021/07/13 13:58:27;;;;;;;12.67;11.47;;;;;;;;;;5079381;28;20318;-83
2021/07/13 14:00:53;;;;;;;13.10;11.80;;;;;;;;;;5078386;28;20194;-83
2021/07/13 14:03:19;;;;;;;12.77;11.57;;;;;;;;;;5078606;28;20183;-83
2021/07/13 14:05:45;;;;;;;13.38;12.18;;;;;;;;;;5076927;28;20450;-83
2021/07/13 14:08:11;;;;;;;13.10;11.70;;;;;;;;;;5096199;28;20184;-83
2021/07/13 14:10:38;;;;;;;11.50;10.30;;;;;;;;;;5077965;28;20168;-82
2021/07/13 14:13:04;;;;;;;11.83;10.27;;;;;;;;;;5078298;28;20167;-83
2021/07/13 14:15:30;;;;;;;11.93;10.83;;;;;;;;;;5095394;28;20175;-83
2021/07/13 14:17:56;;;;;;;11.40;10.40;;;;;;;;;;5076976;28;20290;-83
2021/07/13 14:20:22;;;;;;;12.33;11.13;;;;;;;;;;5093566;28;20173;-82
2021/07/13 14:22:48;;;;;;;11.30;10.30;;;;;;;;;;5074988;28;20268;-83
2021/07/13 14:25:16;;;;;;;11.03;10.03;;;;;;;;;;5093526;28;20255;-83
2021/07/13 14:27:43;;;;;;;11.40;10.30;;;;;;;;;;5075556;28;20189;-82
2021/07/13 14:30:10;;;;;;;11.00;10.00;;;;;;;;;;5093765;28;20541;-83
2021/07/13 14:32:36;;;;;;;11.60;10.43;;;;;;;;;;5076694;28;20292;-83
2021/07/13 14:35:05;;;;;;;15.98;14.57;;;;;;;;;;5076198;28;20412;-84
2021/07/13 14:37:31;;;;;;;12.80;11.50;;;;;;;;;;5077124;28;20198;-85
2021/07/13 14:39:58;;;;;;;12.50;11.40;;;;;;;;;;5092379;28;20166;-84
2021/07/13 14:42:25;;;;;;;12.90;11.67;;;;;;;;;;5074628;28;20665;-84